Time;durP1;ratioP1;P1;durP2;ratioP2;P2;SDS_P1;SDS_P2;PMS_P1;PMS_P2;Temp;Humidity;BMP_temperature;BMP_pressure;BME280_temperature;BME280_humidity;BME280_pressure;Samples;Min_cycle;Max_cycle;Signal;HPM_P1;HPM_P2
2023/07/11 00:02:22;;;;;;;10.07;5.60;;;27.20;73.90;;;;;;5074247;28;20033;-74
2023/07/11 00:04:48;;;;;;;11.23;5.82;;;27.20;74.00;;;;;;5074331;28;20098;-74
2023/07/11 00:07:13;;;;;;;10.05;5.50;;;27.20;74.00;;;;;;5074108;28;20054;-74
2023/07/11 00:09:39;;;;;;;8.70;6.07;;;27.20;74.10;;;;;;5074171;28;20033;-74
2023/07/11 00:12:06;;;;;;;12.00;6.20;;;27.20;74.30;;;;;;5056102;28;20119;-74
2023/07/11 00:14:32;;;;;;;8.10;5.55;;;27.20;74.50;;;;;;5073841;28;20024;-74
2023/07/11 00:16:57;;;;;;;9.10;6.25;;;27.20;74.80;;;;;;5073604;28;20060;-74
2023/07/11 00:19:23;;;;;;;11.90;6.45;;;27.20;75.20;;;;;;5073778;28;20028;-74
2023/07/11 00:21:49;;;;;;;10.00;6.97;;;27.20;75.60;;;;;;5073346;28;20027;-74
2023/07/11 00:24:15;;;;;;;13.05;7.00;;;27.20;76.00;;;;;;5073475;28;20032;-73
2023/07/11 00:26:40;;;;;;;11.07;6.25;;;27.10;76.10;;;;;;5073925;28;20131;-74
2023/07/11 00:29:20;;;;;;;9.10;6.70;;;27.10;76.20;;;;;;5073821;28;20371;-73
2023/07/11 00:31:46;;;;;;;11.65;6.07;;;27.20;76.40;;;;;;5073594;28;20034;-74
2023/07/11 00:34:12;;;;;;;9.73;6.72;;;27.10;76.50;;;;;;5073295;28;20052;-74
2023/07/11 00:36:38;;;;;;;13.73;6.70;;;27.20;76.70;;;;;;5073193;28;20056;-74
2023/07/11 00:39:04;;;;;;;10.07;6.82;;;27.10;76.50;;;;;;5073443;28;20040;-74
2023/07/11 00:41:31;;;;;;;8.65;6.25;;;27.10;76.30;;;;;;5073642;28;20107;-74
2023/07/11 00:43:57;;;;;;;9.50;6.85;;;27.10;76.40;;;;;;5073398;28;20027;-74
2023/07/11 00:46:23;;;;;;;11.13;6.13;;;27.10;76.50;;;;;;5055047;28;20413;-75
2023/07/11 00:48:57;;;;;;;13.77;6.07;;;27.10;76.10;;;;;;5073148;28;20025;-75
2023/07/11 00:51:35;;;;;;;8.63;5.60;;;27.00;75.30;;;;;;5055199;28;20028;-74
2023/07/11 00:54:03;;;;;;;7.60;5.45;;;27.00;74.80;;;;;;5073105;28;20017;-74
2023/07/11 00:56:35;;;;;;;8.45;5.60;;;27.00;74.50;;;;;;5073234;28;20028;-74
2023/07/11 00:59:01;;;;;;;;;;;26.90;74.00;;;;;;5070842;28;20040;-74
2023/07/11 01:01:27;;;;;;;10.32;6.15;;;26.90;74.10;;;;;;5070358;28;19908;-74
2023/07/11 01:03:54;;;;;;;11.35;5.75;;;26.90;74.30;;;;;;5070756;28;20054;-74
2023/07/11 01:06:24;;;;;;;12.63;5.15;;;26.80;74.00;;;;;;5072679;28;20028;-74
2023/07/11 01:08:51;;;;;;;10.35;5.47;;;26.80;73.70;;;;;;5072649;28;20032;-74
2023/07/11 01:11:17;;;;;;;11.45;5.88;;;26.80;73.20;;;;;;5072948;28;20082;-74
2023/07/11 01:13:44;;;;;;;9.00;5.93;;;26.60;72.90;;;;;;5072781;28;20452;-74
2023/07/11 01:16:10;;;;;;;9.15;5.57;;;26.60;73.10;;;;;;5051408;28;20056;-74
2023/07/11 01:18:36;;;;;;;11.68;6.15;;;26.60;73.10;;;;;;5052823;28;20099;-74
2023/07/11 01:21:04;;;;;;;9.65;5.63;;;26.60;73.40;;;;;;5052715;28;20021;-74
2023/07/11 01:23:31;;;;;;;11.68;5.90;;;26.60;73.60;;;;;;5052544;28;20029;-74
2023/07/11 01:26:06;;;;;;;9.55;5.93;;;26.50;73.70;;;;;;5052776;28;20060;-74
2023/07/11 01:28:32;;;;;;;10.07;6.28;;;26.50;74.00;;;;;;5052388;28;20029;-73
2023/07/11 01:30:58;;;;;;;7.20;5.32;;;26.50;74.10;;;;;;5052603;28;20505;-75
2023/07/11 01:33:25;;;;;;;10.30;5.65;;;26.50;74.10;;;;;;5052645;28;20021;-74
2023/07/11 01:35:54;;;;;;;15.45;6.07;;;26.50;74.20;;;;;;5052677;28;20060;-74
2023/07/11 01:38:22;;;;;;;9.60;5.90;;;26.40;74.60;;;;;;5054793;28;20071;-74
2023/07/11 01:40:49;;;;;;;10.85;6.15;;;26.40;73.40;;;;;;5056920;28;20029;-74
2023/07/11 01:43:17;;;;;;;10.07;6.00;;;26.40;73.70;;;;;;5056596;28;20037;-74
2023/07/11 01:45:43;;;;;;;12.93;6.43;;;26.40;73.80;;;;;;5056878;28;20033;-74
2023/07/11 01:48:09;;;;;;;9.57;6.15;;;26.40;73.70;;;;;;5056857;28;20064;-73
2023/07/11 01:50:34;;;;;;;8.70;5.32;;;26.30;73.30;;;;;;5056750;28;20056;-74
2023/07/11 01:53:00;;;;;;;12.23;6.03;;;26.30;73.20;;;;;;5056757;28;20017;-74
2023/07/11 01:55:26;;;;;;;11.05;5.68;;;26.20;73.40;;;;;;5056414;28;20425;-74
2023/07/11 01:57:52;;;;;;;11.40;5.65;;;26.30;73.50;;;;;;5056302;28;20052;-74
2023/07/11 02:00:18;;;;;;;8.82;5.75;;;26.30;73.00;;;;;;5056467;28;20075;-74
2023/07/11 02:02:44;;;;;;;8.75;5.90;;;26.30;72.80;;;;;;5056599;28;20096;-74
2023/07/11 02:05:10;;;;;;;8.60;5.82;;;26.20;72.70;;;;;;5056498;28;20040;-74
2023/07/11 02:07:36;;;;;;;11.07;5.93;;;26.20;72.80;;;;;;5055061;28;20033;-74
2023/07/11 02:10:02;;;;;;;9.77;6.35;;;26.20;72.90;;;;;;5056055;28;20021;-74
2023/07/11 02:12:28;;;;;;;8.95;5.65;;;26.20;74.30;;;;;;5056473;28;20021;-74
2023/07/11 02:14:53;;;;;;;11.60;5.82;;;26.20;74.10;;;;;;5056274;28;20032;-74
2023/07/11 02:17:19;;;;;;;8.65;5.38;;;26.20;74.00;;;;;;5072055;28;20106;-74
2023/07/11 02:19:45;;;;;;;12.40;5.80;;;26.20;73.70;;;;;;5076216;28;20078;-74
2023/07/11 02:22:11;;;;;;;13.30;6.70;;;26.20;73.40;;;;;;5075944;28;20390;-74
2023/07/11 02:24:39;;;;;;;8.30;5.38;;;26.20;73.10;;;;;;5075846;28;20086;-74
2023/07/11 02:27:06;;;;;;;6.95;5.65;;;26.20;72.90;;;;;;5076132;28;20438;-74
2023/07/11 02:29:32;;;;;;;11.48;5.50;;;26.20;72.80;;;;;;5076060;28;20031;-74
2023/07/11 02:31:58;;;;;;;8.45;6.18;;;26.20;72.60;;;;;;5076074;28;20028;-74
2023/07/11 02:34:24;;;;;;;9.75;5.57;;;26.20;72.60;;;;;;5075758;28;20029;-74
2023/07/11 02:36:49;;;;;;;8.80;5.32;;;26.20;72.50;;;;;;5076304;28;20043;-74
2023/07/11 02:39:16;;;;;;;7.65;5.15;;;26.20;72.60;;;;;;5075786;28;20032;-74
2023/07/11 02:41:41;;;;;;;11.18;5.32;;;26.20;72.50;;;;;;5057777;28;20556;-74
2023/07/11 02:44:07;;;;;;;11.45;5.60;;;26.20;72.40;;;;;;5075720;28;20028;-73
2023/07/11 02:46:33;;;;;;;11.68;5.32;;;26.20;72.00;;;;;;5075803;28;20012;-74
2023/07/11 02:48:59;;;;;;;9.20;5.50;;;26.10;72.00;;;;;;5074094;28;20077;-74
2023/07/11 02:51:25;;;;;;;8.32;5.18;;;26.10;72.10;;;;;;5075479;28;20522;-74
2023/07/11 02:53:51;;;;;;;10.73;5.75;;;26.10;72.00;;;;;;5075613;28;20024;-74
2023/07/11 02:56:18;;;;;;;11.27;5.45;;;26.00;72.00;;;;;;5075541;28;20016;-74
2023/07/11 02:58:45;;;;;;;8.70;5.22;;;25.90;71.80;;;;;;5075339;28;20040;-74
2023/07/11 03:01:11;;;;;;;8.32;5.40;;;25.90;71.90;;;;;;5075532;28;20013;-74
2023/07/11 03:03:36;;;;;;;8.02;5.57;;;25.90;71.90;;;;;;5075269;28;20390;-74
2023/07/11 03:06:02;;;;;;;9.95;5.97;;;25.90;72.00;;;;;;5075540;28;20026;-74
2023/07/11 03:08:28;;;;;;;9.25;6.03;;;25.90;72.00;;;;;;5075362;28;20032;-74
2023/07/11 03:10:59;;;;;;;13.93;5.60;;;25.80;72.00;;;;;;5075209;28;20103;-74
2023/07/11 03:13:25;;;;;;;15.82;6.22;;;25.80;71.90;;;;;;5075227;28;20020;-74
2023/07/11 03:15:51;;;;;;;14.85;5.85;;;25.80;71.80;;;;;;5074727;28;20032;-74
2023/07/11 03:18:17;;;;;;;11.93;5.50;;;25.80;72.10;;;;;;5075078;28;20028;-74
2023/07/11 03:20:43;;;;;;;11.38;6.20;;;25.70;72.30;;;;;;5075034;28;20025;-74
2023/07/11 03:23:12;;;;;;;15.85;5.85;;;25.70;72.20;;;;;;5074705;28;20435;-74
2023/07/11 03:25:38;;;;;;;39.92;7.07;;;25.70;71.90;;;;;;5074866;28;20047;-74
2023/07/11 03:28:04;;;;;;;22.05;6.60;;;25.70;71.90;;;;;;5074832;28;20025;-74
2023/07/11 03:30:36;;;;;;;30.60;6.22;;;25.70;72.10;;;;;;5074927;28;20017;-74
2023/07/11 03:33:02;;;;;;;26.38;7.43;;;25.60;72.20;;;;;;5074614;28;20095;-74
2023/07/11 03:35:28;;;;;;;19.65;6.35;;;25.60;72.60;;;;;;5074652;28;20059;-74
2023/07/11 03:37:54;;;;;;;12.80;5.90;;;25.60;72.90;;;;;;5074370;28;20506;-74
2023/07/11 03:40:19;;;;;;;10.63;5.45;;;25.60;72.80;;;;;;5074605;28;20134;-74
2023/07/11 03:42:45;;;;;;;15.07;5.78;;;25.60;72.90;;;;;;5074719;28;20066;-74
2023/07/11 03:45:11;;;;;;;9.80;5.47;;;25.50;73.20;;;;;;5056559;28;20482;-74
2023/07/11 03:47:37;;;;;;;10.35;5.60;;;25.50;73.10;;;;;;5056668;28;20030;-74
2023/07/11 03:50:03;;;;;;;7.60;5.13;;;25.50;73.10;;;;;;5074281;28;20104;-74
2023/07/11 03:52:28;;;;;;;11.30;5.63;;;25.40;73.10;;;;;;5074317;28;20078;-74
2023/07/11 03:54:54;;;;;;;9.20;6.15;;;25.40;73.20;;;;;;5074424;28;20025;-73
2023/07/11 03:57:20;;;;;;;11.18;5.68;;;25.30;73.20;;;;;;5074365;28;20024;-74
2023/07/11 03:59:46;;;;;;;18.55;7.40;;;25.30;73.00;;;;;;5074135;28;20025;-74
2023/07/11 04:02:12;;;;;;;16.23;5.85;;;25.30;73.20;;;;;;5073977;28;20067;-73
2023/07/11 04:04:38;;;;;;;10.90;5.60;;;25.20;73.10;;;;;;5074274;28;20067;-74
2023/07/11 04:07:04;;;;;;;10.90;5.40;;;25.20;72.90;;;;;;5074117;28;20031;-74
2023/07/11 04:09:30;;;;;;;11.15;5.60;;;25.20;72.90;;;;;;5074072;28;20029;-74
2023/07/11 04:11:56;;;;;;;15.05;5.80;;;25.20;72.90;;;;;;5074163;28;20109;-73
2023/07/11 04:14:22;;;;;;;15.77;5.65;;;25.10;73.00;;;;;;5074052;28;20028;-74
2023/07/11 04:16:48;;;;;;;13.68;5.85;;;25.10;72.90;;;;;;5073688;28;20076;-74
2023/07/11 04:19:13;;;;;;;9.60;5.03;;;25.10;73.00;;;;;;5073816;28;20040;-74
2023/07/11 04:21:39;;;;;;;12.82;6.82;;;25.10;73.00;;;;;;5073775;28;20028;-74
2023/07/11 04:24:05;;;;;;;10.32;5.50;;;25.10;73.00;;;;;;5073626;28;20486;-74
2023/07/11 04:26:31;;;;;;;10.73;5.20;;;25.00;73.00;;;;;;5073814;28;20025;-74
2023/07/11 04:28:57;;;;;;;14.27;6.05;;;25.10;73.10;;;;;;5055656;28;20028;-74
2023/07/11 04:31:22;;;;;;;11.98;5.85;;;25.10;73.00;;;;;;5073739;28;20177;-74
2023/07/11 04:33:48;;;;;;;14.60;5.90;;;25.10;72.90;;;;;;5073451;28;20386;-74
2023/07/11 04:36:16;;;;;;;13.13;5.60;;;25.10;72.70;;;;;;5073403;28;20482;-74
2023/07/11 04:38:43;;;;;;;10.30;5.95;;;25.10;72.70;;;;;;5073471;28;20032;-74
2023/07/11 04:41:09;;;;;;;11.57;6.05;;;25.10;72.70;;;;;;5073536;28;20031;-74
2023/07/11 04:43:36;;;;;;;14.23;5.20;;;25.10;72.40;;;;;;5073467;28;20074;-74
2023/07/11 04:46:03;;;;;;;16.98;5.53;;;25.10;72.30;;;;;;5073428;28;20028;-74
2023/07/11 04:48:30;;;;;;;11.88;5.95;;;25.10;72.10;;;;;;5073371;28;20512;-74
2023/07/11 04:51:02;;;;;;;11.05;5.30;;;25.10;71.90;;;;;;5073488;28;20047;-74
2023/07/11 04:53:28;;;;;;;24.80;6.85;;;25.10;71.80;;;;;;5055325;28;20044;-74
2023/07/11 04:55:59;;;;;;;41.80;7.65;;;25.20;71.80;;;;;;5055330;28;20017;-74
2023/07/11 04:58:29;;;;;;;25.52;6.85;;;25.20;71.80;;;;;;5073000;28;20036;-74
2023/07/11 05:01:05;;;;;;;17.05;6.10;;;25.20;71.90;;;;;;5073184;28;20024;-74
2023/07/11 05:03:31;;;;;;;15.80;5.80;;;25.20;72.00;;;;;;5073140;28;20056;-74
2023/07/11 05:05:57;;;;;;;13.93;5.90;;;25.20;71.90;;;;;;5072995;28;20024;-74
2023/07/11 05:08:24;;;;;;;9.23;5.78;;;25.20;72.00;;;;;;5073008;28;20123;-74
2023/07/11 05:10:58;;;;;;;12.15;5.93;;;25.30;72.10;;;;;;5073171;28;20024;-74
2023/07/11 05:13:23;;;;;;;15.88;5.78;;;25.30;72.00;;;;;;5072262;28;20424;-74
2023/07/11 05:15:49;;;;;;;11.07;5.22;;;25.40;72.20;;;;;;5072999;28;20096;-74
2023/07/11 05:18:15;;;;;;;11.18;6.10;;;25.40;72.50;;;;;;5073079;28;20410;-74
2023/07/11 05:20:40;;;;;;;18.48;5.68;;;25.40;72.70;;;;;;5072814;28;20024;-74
2023/07/11 05:23:06;;;;;;;15.98;5.82;;;25.40;72.80;;;;;;5073083;28;20028;-74
2023/07/11 05:25:36;;;;;;;16.52;5.80;;;25.50;72.70;;;;;;5072932;28;20024;-74
2023/07/11 05:28:01;;;;;;;13.43;5.63;;;25.50;72.50;;;;;;5072986;28;20032;-74
2023/07/11 05:30:27;;;;;;;20.30;6.10;;;25.50;72.50;;;;;;5072859;28;20020;-74
2023/07/11 05:32:55;;;;;;;19.48;6.03;;;25.60;72.60;;;;;;5072765;28;20024;-74
2023/07/11 05:35:20;;;;;;;15.32;6.10;;;25.60;72.70;;;;;;5073027;28;20020;-74
2023/07/11 05:37:46;;;;;;;14.02;6.13;;;25.60;72.90;;;;;;5072817;28;20120;-74
2023/07/11 05:40:12;;;;;;;11.38;5.70;;;25.60;73.10;;;;;;5072741;28;20017;-74
2023/07/11 05:42:37;;;;;;;17.65;6.10;;;25.70;73.40;;;;;;5072802;28;20036;-74
2023/07/11 05:45:03;;;;;;;19.40;6.82;;;25.70;73.40;;;;;;5072785;28;20025;-74
2023/07/11 05:47:29;;;;;;;15.85;5.97;;;25.80;73.10;;;;;;5072370;28;20021;-74
2023/07/11 05:49:55;;;;;;;13.45;5.72;;;25.80;73.00;;;;;;5072849;28;20025;-74
2023/07/11 05:52:21;;;;;;;17.73;6.03;;;25.80;72.80;;;;;;5072608;28;20024;-74
2023/07/11 05:54:46;;;;;;;14.95;5.97;;;25.90;72.70;;;;;;5072622;28;20031;-74
2023/07/11 05:57:12;;;;;;;14.23;5.65;;;25.90;72.60;;;;;;5072384;28;20028;-74
2023/07/11 05:59:38;;;;;;;11.93;5.47;;;25.90;72.70;;;;;;5072789;28;20024;-74
2023/07/11 06:02:04;;;;;;;16.75;6.47;;;26.00;72.60;;;;;;5072526;28;20374;-74
2023/07/11 06:04:30;;;;;;;8.38;5.57;;;26.00;72.60;;;;;;5072542;28;20039;-74
2023/07/11 06:06:55;;;;;;;11.65;5.60;;;26.00;72.20;;;;;;5072448;28;20470;-74
2023/07/11 06:09:21;;;;;;;10.55;5.05;;;26.10;72.00;;;;;;5072045;28;20024;-74
2023/07/11 06:11:49;;;;;;;12.35;5.22;;;26.20;72.00;;;;;;5072222;28;20032;-74
2023/07/11 06:14:16;;;;;;;9.25;5.07;;;26.20;71.80;;;;;;5072526;28;20020;-74
2023/07/11 06:16:43;;;;;;;11.32;4.85;;;26.20;71.30;;;;;;5072366;28;20044;-74
2023/07/11 06:19:09;;;;;;;7.80;4.68;;;26.30;70.90;;;;;;5072375;28;20085;-74
2023/07/11 06:21:35;;;;;;;9.50;5.18;;;26.30;70.60;;;;;;5072351;28;20027;-74
2023/07/11 06:24:01;;;;;;;10.35;5.32;;;26.40;70.50;;;;;;5073962;28;20107;-74
2023/07/11 06:26:27;;;;;;;8.60;4.95;;;26.50;70.40;;;;;;5075711;28;20074;-74
2023/07/11 06:28:53;;;;;;;6.78;4.97;;;26.50;70.10;;;;;;5076048;28;20029;-74
2023/07/11 06:31:18;;;;;;;8.80;5.00;;;26.50;70.10;;;;;;5076143;28;20031;-74
2023/07/11 06:33:45;;;;;;;8.63;5.05;;;26.50;69.20;;;;;;5075901;28;20025;-74
2023/07/11 06:36:12;;;;;;;8.15;5.43;;;26.60;68.40;;;;;;5075862;28;20020;-74
2023/07/11 06:38:37;;;;;;;11.52;4.95;;;26.60;68.30;;;;;;5075861;28;20033;-74
2023/07/11 06:41:03;;;;;;;8.25;4.88;;;26.70;68.30;;;;;;5075845;28;20025;-74
2023/07/11 06:43:30;;;;;;;15.48;5.03;;;26.70;68.40;;;;;;5075978;28;20017;-74
2023/07/11 06:45:57;;;;;;;18.27;5.45;;;26.70;68.70;;;;;;5075597;28;20382;-74
2023/07/11 06:48:25;;;;;;;9.05;5.00;;;26.80;68.80;;;;;;5075751;28;20104;-74
2023/07/11 06:50:56;;;;;;;9.57;5.30;;;26.80;68.40;;;;;;5075856;28;20024;-74
2023/07/11 06:53:25;;;;;;;12.63;5.60;;;26.90;67.70;;;;;;5057674;28;20120;-74
2023/07/11 06:55:52;;;;;;;14.65;5.18;;;26.90;67.20;;;;;;5075523;28;20035;-74
2023/07/11 06:58:18;;;;;;;11.93;5.05;;;27.00;66.80;;;;;;5075443;28;20111;-74
2023/07/11 07:00:50;;;;;;;9.07;5.03;;;27.00;66.60;;;;;;5075338;28;20103;-74
2023/07/11 07:03:16;;;;;;;11.50;4.38;;;27.10;66.30;;;;;;5075086;28;20508;-73
2023/07/11 07:05:56;;;;;;;8.13;4.60;;;27.10;66.00;;;;;;5075268;28;20092;-74
2023/07/11 07:08:24;;;;;;;7.30;4.78;;;27.20;66.20;;;;;;5075266;28;20374;-74
2023/07/11 07:10:50;;;;;;;9.55;5.43;;;27.20;66.30;;;;;;5075107;28;20095;-74
2023/07/11 07:13:19;;;;;;;11.13;5.38;;;27.30;66.40;;;;;;5075350;28;20028;-74
2023/07/11 07:15:53;;;;;;;14.02;5.80;;;27.30;66.40;;;;;;5075085;28;20501;-74
2023/07/11 07:18:19;;;;;;;7.25;5.03;;;27.30;66.30;;;;;;5057141;28;20537;-74
2023/07/11 07:20:46;;;;;;;8.27;5.13;;;27.40;66.50;;;;;;5074954;28;20074;-74
2023/07/11 07:23:13;;;;;;;14.30;5.35;;;27.40;66.70;;;;;;5075062;28;20031;-74
2023/07/11 07:25:39;;;;;;;8.75;5.25;;;27.50;67.00;;;;;;5075203;28;20028;-74
2023/07/11 07:28:06;;;;;;;10.73;5.30;;;27.50;66.60;;;;;;5074647;28;20031;-74
2023/07/11 07:30:33;;;;;;;15.10;6.40;;;27.60;65.40;;;;;;5074497;28;20024;-74
2023/07/11 07:32:59;;;;;;;18.65;5.95;;;27.60;65.40;;;;;;5074876;28;20486;-74
2023/07/11 07:35:25;;;;;;;12.02;5.65;;;27.70;65.60;;;;;;5073938;28;20021;-74
2023/07/11 07:37:50;;;;;;;15.05;5.63;;;27.70;65.00;;;;;;5074726;28;20033;-74
2023/07/11 07:40:16;;;;;;;9.93;5.22;;;27.70;64.90;;;;;;5074838;28;20393;-74
2023/07/11 07:42:42;;;;;;;9.50;5.47;;;27.80;64.90;;;;;;5074887;28;20024;-74
2023/07/11 07:45:08;;;;;;;19.52;5.50;;;27.80;64.90;;;;;;5074525;28;20024;-74
2023/07/11 07:47:37;;;;;;;16.70;6.13;;;27.80;65.00;;;;;;5074600;28;20153;-74
2023/07/11 07:50:03;;;;;;;15.23;5.45;;;27.90;65.00;;;;;;5074182;28;20028;-74
2023/07/11 07:52:29;;;;;;;10.18;5.22;;;28.00;65.80;;;;;;5074447;28;20020;-74
2023/07/11 07:54:54;;;;;;;14.13;5.57;;;28.00;66.30;;;;;;5074584;28;20027;-74
2023/07/11 07:57:20;;;;;;;7.68;5.50;;;28.10;66.70;;;;;;5074239;28;20126;-74
2023/07/11 07:59:46;;;;;;;8.55;5.38;;;28.20;66.90;;;;;;5074265;28;20108;-75
2023/07/11 08:02:12;;;;;;;12.27;5.80;;;28.20;67.10;;;;;;5074182;28;20024;-74
2023/07/11 08:04:37;;;;;;;13.98;5.40;;;28.30;66.80;;;;;;5074296;28;20028;-73
2023/07/11 08:07:03;;;;;;;14.30;5.45;;;28.30;66.30;;;;;;5074325;28;20021;-74
2023/07/11 08:09:29;;;;;;;9.05;5.32;;;28.30;65.90;;;;;;5074067;28;20557;-74
2023/07/11 08:12:03;;;;;;;9.13;5.13;;;28.40;65.60;;;;;;5073991;28;20028;-74
2023/07/11 08:14:29;;;;;;;13.40;5.60;;;28.50;65.40;;;;;;5073956;28;20024;-74
2023/07/11 08:16:54;;;;;;;8.07;5.90;;;28.60;65.90;;;;;;5073597;28;20052;-74
2023/07/11 08:19:20;;;;;;;16.05;5.28;;;28.60;65.20;;;;;;5073802;28;20119;-74
2023/07/11 08:21:46;;;;;;;12.20;5.75;;;28.70;65.10;;;;;;5073646;28;20048;-74
2023/07/11 08:24:12;;;;;;;14.55;6.03;;;28.80;65.00;;;;;;5073453;28;20028;-74
2023/07/11 08:26:38;;;;;;;13.50;5.35;;;28.80;65.70;;;;;;5073801;28;20092;-74
2023/07/11 08:29:04;;;;;;;8.25;5.82;;;28.90;65.30;;;;;;5073816;28;20119;-74
2023/07/11 08:31:30;;;;;;;10.07;5.75;;;28.90;64.80;;;;;;5073559;28;20029;-75
2023/07/11 08:33:56;;;;;;;10.70;5.85;;;28.90;65.30;;;;;;5055553;28;20032;-74
2023/07/11 08:36:21;;;;;;;12.68;6.00;;;29.00;64.90;;;;;;5073553;28;20031;-74
2023/07/11 08:38:47;;;;;;;11.90;5.30;;;29.00;65.20;;;;;;5073364;28;20072;-74
2023/07/11 08:41:25;;;;;;;7.30;5.47;;;29.10;65.70;;;;;;5073544;28;20024;-74
2023/07/11 08:43:57;;;;;;;13.02;5.32;;;29.10;65.70;;;;;;5073392;28;20386;-74
2023/07/11 08:46:26;;;;;;;11.93;5.68;;;29.20;66.00;;;;;;5073392;28;20024;-74
2023/07/11 08:48:57;;;;;;;10.90;5.78;;;29.30;65.80;;;;;;5073328;28;20363;-74
2023/07/11 08:51:32;;;;;;;11.40;5.88;;;29.30;65.70;;;;;;5073298;28;20028;-74
2023/07/11 08:54:10;;;;;;;9.18;5.93;;;29.40;66.10;;;;;;5073455;28;20070;-74
2023/07/11 08:56:40;;;;;;;11.20;5.90;;;29.40;66.00;;;;;;5073302;28;20025;-74
2023/07/11 08:59:08;;;;;;;11.35;5.90;;;29.50;66.00;;;;;;5072952;28;20055;-74
2023/07/11 09:01:48;;;;;;;12.93;5.88;;;29.50;66.40;;;;;;5073034;28;20024;-74
2023/07/11 09:04:20;;;;;;;12.32;5.70;;;29.60;66.70;;;;;;5073195;28;20032;-74
2023/07/11 09:07:09;;;;;;;10.82;6.13;;;29.60;66.20;;;;;;5072950;28;20501;-74
2023/07/11 09:09:35;;;;;;;10.65;5.78;;;29.60;66.50;;;;;;5072907;28;20517;-74
2023/07/11 09:12:13;;;;;;;12.27;6.28;;;29.70;66.00;;;;;;5073014;28;20052;-74
2023/07/11 09:14:47;;;;;;;10.98;5.85;;;29.80;66.50;;;;;;5073077;28;20032;-73
2023/07/11 09:17:35;;;;;;;10.05;6.00;;;29.80;66.40;;;;;;5080390;22;20056;-73
2023/07/11 09:20:10;;;;;;;10.63;6.18;;;29.90;66.30;;;;;;5073019;28;20124;-74
2023/07/11 09:23:03;;;;;;;14.02;6.70;;;29.90;66.30;;;;;;5073050;28;20032;-74
2023/07/11 09:25:39;;;;;;;12.85;6.53;;;30.00;67.40;;;;;;5072900;28;20424;-74
2023/07/11 09:28:21;;;;;;;9.75;6.35;;;30.10;66.80;;;;;;5072937;28;20032;-74
2023/07/11 09:30:51;;;;;;;9.35;7.03;;;30.10;66.90;;;;;;5072843;28;20029;-74
2023/07/11 09:33:32;;;;;;;14.00;6.88;;;30.20;67.80;;;;;;5072746;28;20021;-74
2023/07/11 09:36:00;;;;;;;9.20;6.67;;;30.30;68.40;;;;;;5072797;28;20029;-74
2023/07/11 09:38:56;;;;;;;11.13;7.10;;;30.30;68.20;;;;;;5072682;28;20286;-74
2023/07/11 09:41:29;;;;;;;11.80;6.60;;;30.40;68.30;;;;;;5072416;28;20028;-74
2023/07/11 09:43:55;;;;;;;15.52;6.28;;;30.40;67.90;;;;;;5072918;28;20052;-74
2023/07/11 09:46:23;;;;;;;11.20;7.28;;;30.50;68.10;;;;;;5072711;28;20067;-74
2023/07/11 09:48:54;;;;;;;9.93;7.45;;;30.50;68.90;;;;;;5072712;28;20039;-74
2023/07/11 09:51:49;;;;;;;8.52;6.88;;;30.60;68.80;;;;;;5054734;28;20028;-74
2023/07/11 09:54:21;;;;;;;9.82;7.00;;;30.60;68.10;;;;;;5072650;28;20107;-74
2023/07/11 09:56:47;;;;;;;;;;;30.60;68.20;;;;;;5073065;28;20386;-74
2023/07/11 09:59:14;;;;;;;15.48;7.20;;;30.70;68.50;;;;;;5074747;28;20330;-74
2023/07/11 10:01:40;;;;;;;13.80;7.05;;;30.70;68.70;;;;;;5076541;28;20092;-74
2023/07/11 10:04:17;;;;;;;15.48;6.93;;;30.70;68.60;;;;;;5076738;28;20024;-74
2023/07/11 10:06:52;;;;;;;13.70;8.13;;;30.80;68.80;;;;;;5076367;28;20473;-74
2023/07/11 10:09:28;;;;;;;11.60;7.07;;;30.90;68.90;;;;;;5076303;28;20025;-74
2023/07/11 10:12:03;;;;;;;15.27;7.65;;;30.90;68.60;;;;;;5058510;28;20032;-74
2023/07/11 10:14:35;;;;;;;15.32;8.20;;;31.00;67.90;;;;;;5076160;28;20032;-74
2023/07/11 10:17:19;;;;;;;11.23;7.70;;;31.00;67.50;;;;;;5076089;28;20109;-74
2023/07/11 10:19:59;;;;;;;16.70;7.20;;;31.00;67.20;;;;;;5075858;28;20122;-74
2023/07/11 10:22:27;;;;;;;14.38;6.78;;;31.10;67.00;;;;;;5076060;28;20024;-74
2023/07/11 10:25:15;;;;;;;10.82;7.32;;;31.10;67.00;;;;;;5076013;28;20023;-73
2023/07/11 10:27:44;;;;;;;18.90;7.20;;;31.20;67.30;;;;;;5075910;28;20024;-72
2023/07/11 10:30:18;;;;;;;9.70;6.82;;;31.30;67.30;;;;;;5075967;28;20025;-72
2023/07/11 10:32:56;;;;;;;15.82;6.72;;;31.30;67.30;;;;;;5075808;28;20025;-72
2023/07/11 10:35:23;;;;;;;18.63;7.10;;;31.30;67.30;;;;;;5075852;28;20032;-74
2023/07/11 10:38:01;;;;;;;10.15;7.20;;;31.40;66.90;;;;;;5075645;28;20386;-72
2023/07/11 10:40:30;;;;;;;14.23;7.03;;;31.40;66.80;;;;;;5075705;28;20524;-73
2023/07/11 10:43:28;;;;;;;12.35;6.60;;;31.40;66.90;;;;;;5075660;28;20390;-73
2023/07/11 10:46:00;;;;;;;18.58;6.82;;;31.50;66.70;;;;;;5075863;28;20493;-72
2023/07/11 10:48:32;;;;;;;13.02;6.97;;;31.50;66.90;;;;;;5075783;28;20116;-72
2023/07/11 10:51:29;;;;;;;15.20;6.63;;;31.60;67.20;;;;;;5075656;28;20370;-72
2023/07/11 10:54:16;;;;;;;15.13;7.07;;;31.70;66.80;;;;;;5057456;28;20111;-72
2023/07/11 10:56:48;;;;;;;11.98;6.63;;;31.80;66.70;;;;;;5075629;28;20036;-73
2023/07/11 10:59:19;;;;;;;15.52;6.65;;;31.80;66.30;;;;;;5075452;28;20024;-73
2023/07/11 11:01:47;;;;;;;10.30;7.18;;;31.80;66.60;;;;;;5075533;28;20580;-73
2023/07/11 11:04:37;;;;;;;12.93;6.78;;;31.80;66.70;;;;;;5075519;28;20024;-73
2023/07/11 11:07:24;;;;;;;15.05;7.13;;;31.90;66.40;;;;;;5075323;28;20052;-73
2023/07/11 11:10:41;;;;;;;10.43;6.43;;;31.90;66.40;;;;;;5074315;28;20028;-72
2023/07/11 11:13:17;;;;;;;15.18;6.35;;;31.90;66.30;;;;;;5032180;28;20119;-72
2023/07/11 11:15:56;;;;;;;18.23;6.95;;;32.00;66.00;;;;;;5074754;28;20091;-72
2023/07/11 11:19:00;;;;;;;13.60;7.28;;;32.10;65.90;;;;;;5075127;28;20090;-71
2023/07/11 11:21:35;;;;;;;12.05;6.15;;;32.10;64.90;;;;;;5074870;28;20031;-73
2023/07/11 11:24:23;;;;;;;10.88;6.65;;;32.20;64.50;;;;;;5057144;28;20480;-73
2023/07/11 11:27:14;;;;;;;13.55;7.13;;;32.20;64.60;;;;;;5075096;28;20045;-73
2023/07/11 11:29:58;;;;;;;13.57;6.17;;;32.20;64.50;;;;;;5075176;28;20021;-73
2023/07/11 11:32:52;;;;;;;13.40;6.88;;;32.30;64.40;;;;;;5074718;28;20753;-73
2023/07/11 11:36:02;;;;;;;15.98;6.60;;;32.30;64.70;;;;;;5074792;28;20017;-73
2023/07/11 11:38:52;;;;;;;11.82;6.65;;;32.30;64.80;;;;;;5031129;28;20055;-73
2023/07/11 11:41:21;;;;;;;12.32;6.97;;;32.40;65.10;;;;;;5074509;28;20458;-73
2023/07/11 11:43:50;;;;;;;14.65;7.70;;;32.40;65.10;;;;;;5074612;28;20086;-73
2023/07/11 11:46:17;;;;;;;15.73;8.00;;;32.50;64.80;;;;;;5074653;28;20490;-73
2023/07/11 11:48:44;;;;;;;13.10;7.40;;;32.50;64.80;;;;;;5074590;28;20021;-73
2023/07/11 11:51:15;;;;;;;15.55;7.10;;;32.50;64.30;;;;;;5074614;28;20016;-73
2023/07/11 11:53:44;;;;;;;14.30;6.85;;;32.50;64.10;;;;;;5074268;28;20813;-73
2023/07/11 11:56:20;;;;;;;11.90;6.53;;;32.60;64.20;;;;;;5074306;28;20516;-73
2023/07/11 11:58:57;;;;;;;10.00;6.90;;;32.60;63.80;;;;;;5074261;28;20500;-73
2023/07/11 12:02:03;;;;;;;16.45;6.97;;;32.60;64.00;;;;;;5074283;28;20493;-73
2023/07/11 12:04:34;;;;;;;13.27;6.72;;;32.60;64.40;;;;;;4992696;28;20026;-73
2023/07/11 12:07:06;;;;;;;11.77;7.10;;;32.60;64.30;;;;;;4992939;28;20120;-73
2023/07/11 12:09:37;;;;;;;13.10;7.03;;;32.60;64.30;;;;;;5038445;28;20503;-73
2023/07/11 12:12:13;;;;;;;12.32;6.93;;;32.50;64.00;;;;;;5074010;28;20021;-73
2023/07/11 12:14:56;;;;;;;18.08;6.90;;;32.50;64.20;;;;;;5074149;28;20428;-73
2023/07/11 12:17:34;;;;;;;11.95;6.85;;;32.40;64.90;;;;;;5073569;28;20072;-73
2023/07/11 12:19:59;;;;;;;14.07;6.85;;;32.40;65.50;;;;;;5073725;28;20032;-73
2023/07/11 12:22:26;;;;;;;11.23;7.10;;;32.50;65.60;;;;;;5073448;28;20079;-73
2023/07/11 12:25:25;;;;;;;18.35;6.50;;;32.50;65.10;;;;;;5073740;28;20021;-73
2023/07/11 12:27:53;;;;;;;13.10;6.43;;;32.60;65.20;;;;;;5058077;28;20032;-73
2023/07/11 12:30:38;;;;;;;11.27;6.30;;;32.60;65.20;;;;;;5073521;28;20032;-73
2023/07/11 12:33:27;;;;;;;16.85;6.70;;;32.60;65.20;;;;;;5073406;28;20016;-73
2023/07/11 12:36:15;;;;;;;13.88;6.82;;;32.70;65.00;;;;;;5073415;28;20052;-73
2023/07/11 12:38:54;;;;;;;12.85;6.32;;;32.70;64.80;;;;;;5073084;28;20040;-73
2023/07/11 12:41:50;;;;;;;12.75;6.50;;;32.80;64.70;;;;;;5073354;28;20378;-73
2023/07/11 12:44:17;;;;;;;10.82;6.45;;;32.70;64.90;;;;;;5073350;28;20056;-74
2023/07/11 12:46:46;;;;;;;11.13;6.00;;;32.80;65.40;;;;;;5073539;28;20032;-73
2023/07/11 12:49:28;;;;;;;10.95;7.00;;;32.80;64.90;;;;;;5073252;28;20032;-73
2023/07/11 12:52:09;;;;;;;11.68;5.82;;;32.90;64.30;;;;;;5073223;28;20028;-73
2023/07/11 12:54:35;;;;;;;9.32;6.57;;;32.90;63.30;;;;;;5073182;28;20029;-73
2023/07/11 12:57:01;;;;;;;10.45;6.00;;;32.90;62.60;;;;;;5073083;28;20534;-73